Time;durP1;ratioP1;P1;durP2;ratioP2;P2;SDS_P1;SDS_P2;PMS_P1;PMS_P2;Temp;Humidity;BMP_temperature;BMP_pressure;BME280_temperature;BME280_humidity;BME280_pressure;Samples;Min_cycle;Max_cycle;Signal;HPM_P1;HPM_P2
2023/06/08 00:00:39;;;;;;;4.75;2.10;;;;;;;22.50;43.12;98886.81;4937662;29;20152;-76
2023/06/08 00:03:05;;;;;;;7.50;2.00;;;;;;;22.47;42.97;98884.53;4954882;28;20038;-76
2023/06/08 00:05:31;;;;;;;3.80;1.73;;;;;;;22.48;43.12;98880.84;4953569;29;20040;-76
2023/06/08 00:07:57;;;;;;;3.10;1.95;;;;;;;22.42;42.93;98867.50;4953448;28;20093;-78
2023/06/08 00:10:23;;;;;;;3.53;2.08;;;;;;;22.43;43.27;98866.50;4953437;28;20471;-76
2023/06/08 00:12:48;;;;;;;5.47;1.85;;;;;;;22.41;43.25;98866.69;4953648;28;20077;-76
2023/06/08 00:15:17;;;;;;;5.70;2.00;;;;;;;22.41;43.11;98866.69;4954978;28;20446;-76
2023/06/08 00:17:43;;;;;;;2.95;1.85;;;;;;;22.35;43.35;98856.81;4954117;28;20032;-76
2023/06/08 00:20:09;;;;;;;3.20;1.95;;;;;;;22.40;43.35;98862.38;4954364;28;20031;-76
2023/06/08 00:22:36;;;;;;;3.20;1.90;;;;;;;22.38;43.43;98857.25;4937250;29;20062;-76
2023/06/08 00:25:03;;;;;;;5.65;2.63;;;;;;;22.35;43.46;98846.97;4954147;28;20114;-77
2023/06/08 00:27:29;;;;;;;6.13;3.30;;;;;;;22.35;43.52;98857.63;4953639;28;20039;-83
2023/06/08 00:29:55;;;;;;;5.72;3.50;;;;;;;22.35;42.98;98848.81;4937588;29;20035;-77
2023/06/08 00:32:20;;;;;;;7.10;4.03;;;;;;;22.30;43.23;98841.41;4954327;28;20031;-77
2023/06/08 00:34:46;;;;;;;7.10;3.85;;;;;;;22.31;43.54;98851.06;4954330;28;20027;-77
2023/06/08 00:37:11;;;;;;;5.75;3.72;;;;;;;22.25;43.42;98833.16;4954200;28;20096;-76
2023/06/08 00:39:37;;;;;;;6.05;3.92;;;;;;;22.24;43.18;98831.50;4953902;28;20039;-77
2023/06/08 00:42:03;;;;;;;5.82;4.03;;;;;;;22.25;43.52;98841.13;4954470;28;20329;-76
2023/06/08 00:44:28;;;;;;;6.63;4.10;;;;;;;22.22;43.17;98830.88;4953028;29;20023;-76
2023/06/08 00:46:54;;;;;;;7.03;3.97;;;;;;;22.19;43.41;98833.91;4936998;29;21644;-76
2023/06/08 00:49:20;;;;;;;6.95;4.13;;;;;;;22.17;43.56;98826.13;4953013;29;20039;-76
2023/06/08 00:51:46;;;;;;;7.78;4.30;;;;;;;22.11;43.32;98818.09;4937023;29;20103;-76
2023/06/08 00:54:14;;;;;;;5.95;4.13;;;;;;;22.13;43.11;98816.88;4937041;29;20039;-76
2023/06/08 00:56:40;;;;;;;5.40;3.72;;;;;;;22.07;43.57;98817.63;4954157;28;20039;-76
2023/06/08 00:59:07;;;;;;;8.70;4.20;;;;;;;22.07;43.34;98820.28;4937175;29;20043;-76
2023/06/08 01:01:35;;;;;;;5.57;3.83;;;;;;;22.05;43.20;98819.66;4937048;29;20106;-76
2023/06/08 01:04:07;;;;;;;9.77;4.60;;;;;;;22.06;43.37;98816.00;4952686;29;20042;-76
2023/06/08 01:06:36;;;;;;;8.50;4.95;;;;;;;22.01;43.40;98821.88;4953991;28;20045;-76
2023/06/08 01:09:13;;;;;;;8.15;5.35;;;;;;;22.01;43.65;98821.88;4936758;28;20031;-76
2023/06/08 01:11:59;;;;;;;9.80;5.80;;;;;;;22.05;43.52;98825.78;4922051;29;20043;-76
2023/06/08 01:14:41;;;;;;;10.68;6.60;;;;;;;22.06;43.68;98823.97;4952792;29;20023;-76
2023/06/08 01:17:09;;;;;;;10.18;6.35;;;;;;;22.06;43.65;98826.63;4952682;28;20046;-76
2023/06/08 01:20:02;;;;;;;7.35;6.03;;;;;;;22.05;43.62;98832.97;4937185;29;20031;-76
2023/06/08 01:22:30;;;;;;;10.25;6.95;;;;;;;22.05;43.22;98822.31;4953210;29;20027;-78
2023/06/08 01:24:59;;;;;;;;;;;;;;;22.04;43.23;98818.00;4953175;29;20110;-75
2023/06/08 01:27:25;;;;;;;11.10;6.47;;;;;;;21.97;43.50;98819.78;4952677;28;20305;-78
2023/06/08 01:29:51;;;;;;;9.52;6.70;;;;;;;21.99;43.50;98817.75;4923742;28;20043;-76
2023/06/08 01:32:18;;;;;;;11.40;6.90;;;;;;;21.95;43.38;98816.47;4956246;28;20384;-75
2023/06/08 01:34:44;;;;;;;9.27;6.75;;;;;;;21.92;43.67;98820.34;4957360;28;20422;-75
2023/06/08 01:37:17;;;;;;;9.63;6.75;;;;;;;21.93;43.55;98832.63;4940281;29;20023;-76
2023/06/08 01:39:50;;;;;;;12.80;8.32;;;;;;;21.92;43.68;98815.03;4940159;29;20514;-75
2023/06/08 01:42:18;;;;;;;11.80;8.40;;;;;;;21.90;43.58;98816.22;4956397;29;20085;-75
2023/06/08 01:44:49;;;;;;;13.18;8.20;;;;;;;21.89;43.74;98819.91;4940350;29;20031;-75
2023/06/08 01:47:14;;;;;;;10.68;8.23;;;;;;;21.87;43.56;98817.44;4940780;29;20442;-76
2023/06/08 01:49:40;;;;;;;12.55;8.40;;;;;;;21.86;43.80;98819.25;4939971;29;20031;-76
2023/06/08 01:52:06;;;;;;;12.20;8.60;;;;;;;21.82;43.69;98814.50;4955931;29;20031;-76
2023/06/08 01:54:31;;;;;;;11.70;8.45;;;;;;;21.81;43.60;98819.00;4955776;29;20565;-76
2023/06/08 01:56:57;;;;;;;10.50;7.93;;;;;;;21.81;43.50;98821.66;4955804;29;20043;-75
2023/06/08 01:59:22;;;;;;;12.73;8.52;;;;;;;21.79;43.53;98817.53;4956099;29;20027;-76
2023/06/08 02:01:48;;;;;;;12.43;8.52;;;;;;;21.78;44.00;98819.38;4955700;29;20031;-76
2023/06/08 02:04:13;;;;;;;10.80;7.68;;;;;;;21.78;43.69;98821.22;4956987;28;20031;-75
2023/06/08 02:06:39;;;;;;;11.07;7.93;;;;;;;21.79;44.13;98818.38;4939962;29;20075;-75
2023/06/08 02:09:05;;;;;;;12.05;7.80;;;;;;;21.78;44.13;98814.06;4955661;28;20035;-76
2023/06/08 02:11:31;;;;;;;11.48;7.97;;;;;;;21.76;44.07;98810.78;4955524;28;20553;-84
2023/06/08 02:13:56;;;;;;;9.55;7.18;;;;;;;21.76;43.97;98810.78;4955486;28;20027;-80
2023/06/08 02:16:22;;;;;;;10.80;7.57;;;;;;;21.78;44.22;98814.06;4956538;28;20042;-80
2023/06/08 02:18:50;;;;;;;13.35;7.22;;;;;;;21.78;43.74;98814.06;4956619;28;20035;-76
2023/06/08 02:21:15;;;;;;;13.73;7.97;;;;;;;21.74;43.79;98815.44;4955415;29;20055;-75
2023/06/08 02:23:41;;;;;;;11.15;7.93;;;;;;;21.73;43.79;98818.28;4939261;29;20134;-75
2023/06/08 02:26:07;;;;;;;11.15;8.10;;;;;;;21.74;43.74;98826.06;4955307;28;20031;-75
2023/06/08 02:28:33;;;;;;;13.52;8.27;;;;;;;21.70;44.05;98819.50;4955285;29;20394;-75
2023/06/08 02:31:00;;;;;;;9.82;6.95;;;;;;;21.72;44.04;98819.31;4939360;29;20053;-75
2023/06/08 02:33:26;;;;;;;10.90;7.53;;;;;;;21.71;43.99;98817.66;4955331;29;20031;-77
2023/06/08 02:35:51;;;;;;;9.98;7.38;;;;;;;21.69;44.08;98817.84;4955007;28;20087;-78
2023/06/08 02:38:17;;;;;;;10.20;7.20;;;;;;;21.69;44.29;98821.31;4939110;28;20035;-78
2023/06/08 02:40:42;;;;;;;13.88;6.97;;;;;;;21.69;44.19;98825.81;4955375;28;20471;-76
2023/06/08 02:43:08;;;;;;;9.82;6.88;;;;;;;21.69;43.92;98828.47;4954910;29;20106;-76
2023/06/08 02:45:34;;;;;;;11.73;7.53;;;;;;;21.70;44.20;98830.13;4922858;29;20031;-78
2023/06/08 02:48:00;;;;;;;10.75;7.00;;;;;;;21.71;43.92;98829.09;4956214;28;20069;-75
2023/06/08 02:50:26;;;;;;;10.23;6.50;;;;;;;21.71;44.01;98831.75;4955758;28;20055;-78
2023/06/08 02:52:51;;;;;;;10.85;6.35;;;;;;;21.74;44.04;98836.69;4954578;28;20047;-76
2023/06/08 02:55:16;;;;;;;8.63;6.47;;;;;;;21.73;43.74;98832.41;4954468;29;20035;-78
2023/06/08 02:57:42;;;;;;;8.23;5.95;;;;;;;21.87;43.75;98844.03;4954495;28;20079;-75
2023/06/08 03:00:08;;;;;;;7.55;5.68;;;;;;;21.99;43.40;98831.06;4938394;29;20046;-78
2023/06/08 03:02:34;;;;;;;8.73;5.35;;;;;;;22.34;42.67;98831.22;4922445;29;20023;-76
2023/06/08 03:05:03;;;;;;;6.75;4.57;;;;;;;22.71;41.94;98837.25;4922609;29;20039;-79
2023/06/08 03:07:33;;;;;;;7.85;4.97;;;;;;;23.00;41.23;98835.41;4954136;28;20033;-77
2023/06/08 03:10:00;;;;;;;6.47;4.82;;;;;;;23.36;40.51;98843.22;4954308;28;20038;-77
2023/06/08 03:12:25;;;;;;;10.80;4.30;;;;;;;23.70;39.68;98841.50;4938512;29;20501;-77
2023/06/08 03:14:51;;;;;;;6.78;4.13;;;;;;;24.03;38.97;98841.63;4955408;28;20058;-77
2023/06/08 03:17:17;;;;;;;7.05;4.03;;;;;;;24.37;38.21;98847.88;4954256;28;20039;-77
2023/06/08 03:19:43;;;;;;;3.95;3.10;;;;;;;24.82;37.74;98849.94;4938350;28;20485;-77
2023/06/08 03:22:09;;;;;;;5.65;3.42;;;;;;;25.28;36.70;98842.91;4953432;28;20063;-77
2023/06/08 03:24:34;;;;;;;5.47;3.35;;;;;;;25.73;35.58;98844.78;4953785;28;20125;-77
2023/06/08 03:27:00;;;;;;;6.68;3.40;;;;;;;26.16;35.21;98850.34;4953822;29;20039;-80
2023/06/08 03:29:26;;;;;;;6.03;3.40;;;;;;;26.58;34.12;98849.84;4953954;29;20066;-83
2023/06/08 03:31:52;;;;;;;6.80;2.95;;;;;;;27.01;34.34;98843.72;4954205;29;20043;-87
2023/06/08 03:34:17;;;;;;;12.68;2.70;;;;;;;27.57;34.95;98849.94;4937948;29;20489;-78
2023/06/08 03:36:43;;;;;;;6.47;2.25;;;;;;;28.07;34.07;98848.91;4954653;28;20028;-83
2023/06/08 03:39:09;;;;;;;3.83;2.40;;;;;;;28.49;33.09;98843.50;4955153;28;20388;-87
2023/06/08 03:41:35;;;;;;;8.43;2.28;;;;;;;28.88;32.18;98843.09;4938898;29;20023;-83
2023/06/08 03:44:01;;;;;;;6.50;1.92;;;;;;;29.27;31.91;98856.06;4937879;29;20475;-82
2023/06/08 03:46:26;;;;;;;6.03;2.00;;;;;;;29.66;31.16;98850.94;4938109;29;20117;-85
2023/06/08 03:48:52;;;;;;;4.35;1.90;;;;;;;29.97;30.15;98852.38;4955561;28;20059;-88
2023/06/08 03:51:19;;;;;;;6.70;1.88;;;;;;;30.29;29.23;98851.88;4937007;29;20023;-86
2023/06/08 03:53:46;;;;;;;7.55;2.08;;;;;;;30.71;29.38;98842.59;4937825;29;20035;-76
2023/06/08 03:56:11;;;;;;;8.20;1.77;;;;;;;31.28;28.70;98846.91;4954639;28;20487;-83
2023/06/08 03:58:37;;;;;;;4.80;1.60;;;;;;;31.76;27.89;98856.16;4937511;29;20065;-82
2023/06/08 04:01:02;;;;;;;4.60;1.75;;;;;;;32.16;27.53;98862.25;4954716;28;20035;-81
2023/06/08 04:03:28;;;;;;;11.18;1.73;;;;;;;32.58;26.69;98853.44;4937972;28;20078;-81
2023/06/08 04:05:54;;;;;;;6.78;1.45;;;;;;;32.95;26.04;98855.34;4954300;28;20038;-79
2023/06/08 04:08:20;;;;;;;13.13;1.50;;;;;;;33.41;25.42;98849.38;4954728;28;20039;-79
2023/06/08 04:10:45;;;;;;;13.00;1.70;;;;;;;33.77;24.53;98853.03;4954526;28;20028;-81
2023/06/08 04:13:11;;;;;;;5.00;1.42;;;;;;;34.13;24.54;98858.53;4937325;29;20043;-84
2023/06/08 04:15:36;;;;;;;4.80;1.80;;;;;;;34.46;24.39;98858.28;4955047;28;20039;-90
2023/06/08 04:18:02;;;;;;;3.33;1.50;;;;;;;34.69;23.94;98855.03;4937229;29;20086;-89
2023/06/08 04:20:28;;;;;;;13.95;2.35;;;;;;;34.75;24.03;98862.09;4953597;28;20125;-84
2023/06/08 04:22:53;;;;;;;12.25;2.67;;;;;;;35.03;23.00;98848.22;4935938;29;20127;-84
2023/06/08 04:25:19;;;;;;;6.32;2.63;;;;;;;35.35;22.54;98847.88;4936112;29;20206;-83
2023/06/08 04:27:46;;;;;;;10.32;2.25;;;;;;;35.71;21.96;98847.72;4921657;29;20031;-84
2023/06/08 04:30:11;;;;;;;11.25;2.50;;;;;;;36.02;22.01;98851.06;4954767;28;20042;-83
2023/06/08 04:32:37;;;;;;;13.20;2.90;;;;;;;36.30;21.57;98859.59;4921658;29;20039;-85
2023/06/08 04:35:03;;;;;;;13.30;2.85;;;;;;;36.66;21.04;98859.28;4954307;28;20030;-85
2023/06/08 04:37:29;;;;;;;10.48;2.88;;;;;;;37.00;20.91;98857.63;4921264;29;20097;-85
2023/06/08 04:39:56;;;;;;;10.27;3.03;;;;;;;37.32;20.08;98858.91;4953990;28;20039;-84
2023/06/08 04:42:23;;;;;;;12.95;2.80;;;;;;;37.58;19.74;98856.69;4954647;28;20085;-85
2023/06/08 04:44:50;;;;;;;10.23;2.40;;;;;;;37.88;19.74;98862.84;4954026;28;20119;-84
2023/06/08 04:47:17;;;;;;;11.70;2.67;;;;;;;38.20;18.93;98862.09;4952622;29;20055;-85
2023/06/08 04:49:42;;;;;;;9.67;2.10;;;;;;;38.58;18.52;98864.75;4953001;28;20089;-85
2023/06/08 04:52:13;;;;;;;10.32;2.58;;;;;;;38.84;18.25;98864.31;4937408;29;20043;-85
2023/06/08 04:54:38;;;;;;;17.50;2.38;;;;;;;39.19;18.13;98862.03;4937681;29;20398;-85
2023/06/08 04:57:09;;;;;;;9.43;2.22;;;;;;;39.44;18.22;98847.88;4953241;29;20031;-87
2023/06/08 04:59:36;;;;;;;6.15;1.80;;;;;;;39.78;17.70;98843.06;4953441;29;20470;-85
2023/06/08 05:02:02;;;;;;;12.07;2.13;;;;;;;40.07;17.16;98850.88;4954247;28;20127;-88
2023/06/08 05:04:27;;;;;;;9.38;1.92;;;;;;;40.45;15.76;98855.97;4961011;28;20450;-88
2023/06/08 05:06:53;;;;;;;5.05;1.63;;;;;;;40.76;16.36;98852.44;4941809;29;20043;-86
2023/06/08 05:09:18;;;;;;;9.05;1.60;;;;;;;40.99;15.98;98855.13;4957586;28;20082;-86
2023/06/08 05:11:44;;;;;;;7.00;1.77;;;;;;;41.10;15.96;98853.72;4925894;29;20035;-86
2023/06/08 05:14:10;;;;;;;4.55;1.50;;;;;;;41.39;16.03;98855.16;4942380;29;20066;-88
2023/06/08 05:16:37;;;;;;;7.60;1.52;;;;;;;41.52;15.41;98851.44;4941568;29;20586;-87
2023/06/08 05:19:05;;;;;;;6.28;1.45;;;;;;;41.80;15.23;98858.59;4941358;29;20122;-87
2023/06/08 05:21:32;;;;;;;3.33;1.40;;;;;;;42.03;15.13;98854.56;4941659;29;20042;-87
2023/06/08 05:23:57;;;;;;;5.05;1.45;;;;;;;42.27;14.95;98859.59;4956927;29;20587;-88
2023/06/08 05:26:23;;;;;;;7.15;1.55;;;;;;;42.42;14.97;98849.22;4958727;28;20039;-87
2023/06/08 05:28:48;;;;;;;2.97;1.40;;;;;;;42.61;14.59;98860.66;4942312;29;20035;-88
2023/06/08 05:31:14;;;;;;;4.63;1.23;;;;;;;42.78;14.59;98870.78;4940870;29;20031;-85
2023/06/08 05:33:39;;;;;;;3.73;1.60;;;;;;;42.85;14.16;98862.00;4940230;29;20064;-86
2023/06/08 05:36:05;;;;;;;4.73;1.17;;;;;;;43.04;14.30;98871.81;4940168;28;20043;-85
2023/06/08 05:38:31;;;;;;;4.47;1.50;;;;;;;43.11;13.68;98869.34;4940998;29;20493;-78
2023/06/08 05:40:56;;;;;;;5.10;1.50;;;;;;;43.29;14.80;98876.38;4962625;28;20063;-77
2023/06/08 05:43:22;;;;;;;5.43;1.30;;;;;;;43.30;15.11;98868.94;4956141;29;20027;-77
2023/06/08 05:45:47;;;;;;;4.07;1.40;;;;;;;43.34;14.65;98873.44;4939941;29;20027;-78
2023/06/08 05:48:13;;;;;;;2.93;1.10;;;;;;;43.39;14.95;98877.16;4955975;29;20055;-76
2023/06/08 05:50:38;;;;;;;7.00;1.33;;;;;;;43.45;14.96;98873.09;4939898;29;20402;-76
2023/06/08 05:53:04;;;;;;;3.73;1.33;;;;;;;43.59;15.13;98873.63;4956877;28;20031;-77
2023/06/08 05:55:30;;;;;;;3.73;1.20;;;;;;;43.66;14.84;98876.63;4924100;29;20043;-77
2023/06/08 05:57:55;;;;;;;2.50;1.20;;;;;;;43.59;14.75;98873.63;4955787;29;20038;-76
2023/06/08 06:00:21;;;;;;;5.50;1.40;;;;;;;43.40;14.70;98876.81;4956929;28;20035;-76
2023/06/08 06:02:46;;;;;;;5.43;1.40;;;;;;;43.18;15.19;98869.66;4955786;29;20059;-75
2023/06/08 06:05:12;;;;;;;4.17;1.67;;;;;;;43.09;14.52;98877.91;4955641;29;20038;-76
2023/06/08 06:07:38;;;;;;;5.20;1.70;;;;;;;43.12;14.52;98873.72;4923974;29;20028;-78
2023/06/08 06:10:04;;;;;;;19.30;2.17;;;;;;;43.30;14.31;98878.00;4940212;29;20042;-77
2023/06/08 06:12:30;;;;;;;;;;;;;;;43.34;13.64;98878.91;4956124;29;20090;-77
2023/06/08 06:14:55;;;;;;;6.17;1.80;;;;;;;43.48;12.99;98875.16;4955857;28;19910;-76
2023/06/08 06:17:21;;;;;;;9.37;1.90;;;;;;;43.58;12.61;98880.25;4939539;29;20403;-79
2023/06/08 06:19:47;;;;;;;6.35;1.90;;;;;;;43.47;12.76;98885.34;4923335;29;20138;-77
2023/06/08 06:22:12;;;;;;;12.17;3.33;;;;;;;43.19;13.51;98876.72;4939911;29;20035;-76
2023/06/08 06:24:38;;;;;;;7.33;2.80;;;;;;;43.19;12.97;98874.00;4955440;28;20510;-77
2023/06/08 06:27:05;;;;;;;6.27;2.50;;;;;;;43.03;13.14;98873.75;4923210;29;20166;-79
2023/06/08 06:29:30;;;;;;;9.57;3.20;;;;;;;43.04;13.12;98874.56;4939379;29;20030;-76
2023/06/08 06:31:56;;;;;;;8.17;2.67;;;;;;;42.99;13.15;98868.13;4955415;28;20043;-82
2023/06/08 06:34:21;;;;;;;4.57;1.90;;;;;;;42.92;12.73;98870.56;4955058;29;20038;-77
2023/06/08 06:36:47;;;;;;;7.80;1.80;;;;;;;42.78;12.89;98859.78;4938858;29;20031;-77
2023/06/08 06:39:13;;;;;;;8.03;1.87;;;;;;;42.67;12.77;98864.03;4954935;29;20459;-79
2023/06/08 06:41:41;;;;;;;7.27;3.40;;;;;;;42.64;13.08;98861.94;4938889;29;20162;-77
2023/06/08 06:44:07;;;;;;;4.80;2.25;;;;;;;42.53;13.21;98858.72;4923204;29;20035;-74
2023/06/08 06:46:33;;;;;;;6.60;1.90;;;;;;;42.30;13.61;98856.19;4939389;29;20069;-75
2023/06/08 06:48:58;;;;;;;8.83;2.00;;;;;;;42.19;13.82;98854.88;4922871;29;20153;-76
2023/06/08 06:51:25;;;;;;;8.50;2.07;;;;;;;42.08;13.47;98859.06;4923056;29;20038;-77
2023/06/08 06:53:50;;;;;;;5.27;1.90;;;;;;;41.87;13.98;98854.25;4954664;29;20027;-80
2023/06/08 06:56:16;;;;;;;9.93;2.20;;;;;;;41.67;14.59;98854.84;4938896;29;20275;-76
2023/06/08 06:58:44;;;;;;;4.72;1.85;;;;;;;41.32;14.69;98854.78;4923052;29;20035;-77
2023/06/08 07:01:15;;;;;;;6.07;2.80;;;;;;;41.35;14.46;98845.94;4939382;29;20035;-77
2023/06/08 07:03:44;;;;;;;4.07;1.60;;;;;;;41.19;14.62;98845.56;4939220;29;20060;-78
2023/06/08 07:06:10;;;;;;;5.97;1.90;;;;;;;41.05;14.70;98846.50;4923081;29;20054;-78
2023/06/08 07:08:36;;;;;;;3.60;1.50;;;;;;;40.86;14.80;98843.19;4954511;29;20452;-77
2023/06/08 07:11:01;;;;;;;5.00;1.98;;;;;;;40.64;15.27;98847.59;4954894;28;20506;-78
2023/06/08 07:13:27;;;;;;;9.65;1.73;;;;;;;40.45;15.57;98845.03;4954444;28;20094;-76
2023/06/08 07:15:53;;;;;;;8.32;1.90;;;;;;;40.36;15.50;98852.38;4954444;29;20027;-77
2023/06/08 07:18:19;;;;;;;4.15;1.70;;;;;;;40.12;15.52;98848.03;4938888;29;20046;-77
2023/06/08 07:20:44;;;;;;;7.95;1.83;;;;;;;40.01;15.75;98852.13;4938827;29;20110;-76
2023/06/08 07:23:10;;;;;;;7.13;1.63;;;;;;;39.77;15.86;98850.47;4954642;29;20042;-77
2023/06/08 07:25:37;;;;;;;3.13;1.45;;;;;;;39.43;16.47;98850.91;4954461;28;20050;-78
2023/06/08 07:28:03;;;;;;;3.58;1.63;;;;;;;39.14;16.33;98854.78;4954236;28;20035;-77
2023/06/08 07:30:31;;;;;;;4.97;1.60;;;;;;;38.89;16.81;98845.94;4938132;29;20032;-79
2023/06/08 07:33:00;;;;;;;3.95;1.70;;;;;;;38.83;17.06;98851.78;4938940;29;20039;-78
2023/06/08 07:35:25;;;;;;;4.60;1.73;;;;;;;38.43;17.56;98848.63;4954183;29;20039;-77
2023/06/08 07:37:54;;;;;;;7.10;1.80;;;;;;;38.40;17.59;98847.34;4938359;29;20050;-80
2023/06/08 07:40:19;;;;;;;7.82;2.55;;;;;;;38.35;17.71;98847.41;4954103;29;20030;-78
2023/06/08 07:42:45;;;;;;;5.53;1.98;;;;;;;38.30;17.80;98844.75;4953940;28;20418;-78
2023/06/08 07:45:11;;;;;;;4.35;1.83;;;;;;;38.08;17.96;98842.63;4954299;29;20102;-76
2023/06/08 07:47:38;;;;;;;5.60;2.15;;;;;;;38.10;18.06;98835.78;4921967;29;20564;-77
2023/06/08 07:50:07;;;;;;;7.30;1.73;;;;;;;38.07;17.83;98836.38;4938273;29;20063;-79
2023/06/08 07:52:32;;;;;;;4.00;1.63;;;;;;;38.00;17.82;98835.94;4938373;29;20039;-77
2023/06/08 07:54:58;;;;;;;4.63;1.63;;;;;;;37.89;17.99;98839.94;4921975;29;20035;-79
2023/06/08 07:57:24;;;;;;;6.95;1.80;;;;;;;37.84;18.49;98835.38;4921994;29;20200;-76
2023/06/08 07:59:49;;;;;;;3.85;1.95;;;;;;;37.91;18.31;98840.47;4953962;28;20050;-77
2023/06/08 08:02:15;;;;;;;6.35;1.98;;;;;;;37.92;18.65;98842.06;4954691;28;20117;-77
2023/06/08 08:04:40;;;;;;;3.75;1.60;;;;;;;37.89;18.28;98837.19;4921953;29;20494;-76
2023/06/08 08:07:06;;;;;;;3.13;1.48;;;;;;;37.77;18.50;98833.00;4953544;29;20046;-78
2023/06/08 08:09:32;;;;;;;6.32;1.55;;;;;;;37.63;18.56;98837.53;4937633;29;20042;-77
2023/06/08 08:11:57;;;;;;;4.85;1.58;;;;;;;37.48;18.80;98849.47;4937670;29;20032;-76
2023/06/08 08:14:23;;;;;;;5.65;1.60;;;;;;;37.38;18.82;98842.22;4937255;29;20031;-75
2023/06/08 08:16:48;;;;;;;8.23;2.53;;;;;;;37.33;18.60;98833.31;4954280;28;20399;-76
2023/06/08 08:19:16;;;;;;;5.55;2.05;;;;;;;37.20;19.08;98824.72;4954635;28;20030;-76
2023/06/08 08:21:41;;;;;;;;;;;;;;;37.14;19.15;98835.97;4938014;29;20035;-77
2023/06/08 08:24:07;;;;;;;15.60;2.07;;;;;;;37.08;19.18;98841.44;4937236;28;20378;-78
2023/06/08 08:26:32;;;;;;;7.97;1.65;;;;;;;36.72;19.33;98835.56;4921468;29;20451;-76
2023/06/08 08:28:57;;;;;;;5.88;2.00;;;;;;;36.52;19.93;98834.66;4953639;28;20075;-76
2023/06/08 08:31:23;;;;;;;6.97;2.00;;;;;;;36.39;19.81;98832.63;4921493;29;20078;-76
2023/06/08 08:33:49;;;;;;;6.35;1.65;;;;;;;36.25;20.10;98834.34;4921562;29;20553;-76
2023/06/08 08:36:16;;;;;;;3.22;1.60;;;;;;;35.81;20.78;98833.28;4953253;28;20110;-77
2023/06/08 08:38:41;;;;;;;4.32;2.05;;;;;;;35.80;20.65;98824.34;4920917;29;20049;-78
2023/06/08 08:41:09;;;;;;;2.95;1.80;;;;;;;35.76;21.05;98827.91;4954492;28;20039;-77
2023/06/08 08:43:37;;;;;;;6.18;2.20;;;;;;;35.80;20.92;98829.78;4921815;29;20058;-77
2023/06/08 08:46:03;;;;;;;8.77;2.17;;;;;;;35.51;21.32;98816.84;4954084;28;20035;-77
2023/06/08 08:48:29;;;;;;;6.22;2.42;;;;;;;35.43;21.28;98819.34;4937095;29;20419;-78
2023/06/08 08:50:57;;;;;;;6.00;1.92;;;;;;;35.25;21.26;98818.88;4937233;29;20065;-78
2023/06/08 08:53:27;;;;;;;6.38;1.92;;;;;;;35.17;21.58;98824.03;4952834;29;20494;-78
2023/06/08 08:55:57;;;;;;;9.57;1.83;;;;;;;35.08;21.96;98819.19;4937443;29;20380;-78
2023/06/08 08:58:22;;;;;;;5.72;2.03;;;;;;;35.03;22.39;98816.50;4936926;29;20042;-77
2023/06/08 09:00:48;;;;;;;5.53;2.00;;;;;;;35.05;22.18;98816.22;4952900;28;20114;-77
2023/06/08 09:03:15;;;;;;;8.43;2.00;;;;;;;34.92;22.45;98812.19;4920913;29;20097;-78
2023/06/08 09:05:43;;;;;;;5.93;2.10;;;;;;;34.83;22.38;98803.00;4937184;29;20510;-78
2023/06/08 09:08:09;;;;;;;5.15;2.20;;;;;;;34.81;22.69;98811.41;4936919;29;20047;-79
2023/06/08 09:10:35;;;;;;;4.82;2.15;;;;;;;34.75;22.92;98815.22;4936138;29;20043;-78
2023/06/08 09:13:01;;;;;;;5.95;2.78;;;;;;;34.69;22.66;98813.56;4937059;29;20039;-77
2023/06/08 09:15:32;;;;;;;6.55;2.90;;;;;;;34.37;23.24;98818.19;4936925;29;20505;-77
2023/06/08 09:17:58;;;;;;;4.03;2.30;;;;;;;33.97;23.69;98814.38;4937222;29;20119;-77
2023/06/08 09:20:29;;;;;;;6.97;2.22;;;;;;;33.96;23.67;98806.53;4936890;28;20023;-78
2023/06/08 09:22:55;;;;;;;7.68;2.00;;;;;;;33.83;24.03;98807.88;4953067;28;20046;-78
2023/06/08 09:25:38;;;;;;;10.38;2.13;;;;;;;33.54;23.57;98797.47;4952670;28;20038;-78
2023/06/08 09:28:17;;;;;;;3.85;1.80;;;;;;;33.26;24.20;98794.13;4953070;29;20042;-77
2023/06/08 09:30:48;;;;;;;5.95;1.73;;;;;;;33.06;24.58;98800.22;4921076;29;20137;-77
2023/06/08 09:33:20;;;;;;;3.65;1.85;;;;;;;32.94;24.82;98795.06;4937385;29;20049;-77
2023/06/08 09:35:47;;;;;;;5.22;1.70;;;;;;;32.88;24.94;98796.09;4952461;29;20118;-77
2023/06/08 09:38:18;;;;;;;5.03;1.75;;;;;;;32.83;24.74;98793.38;4952587;29;20517;-78
2023/06/08 09:40:46;;;;;;;4.22;1.75;;;;;;;32.72;24.99;98783.56;4937531;29;20047;-76
2023/06/08 09:43:11;;;;;;;3.95;1.67;;;;;;;32.63;25.44;98778.66;4936775;29;20503;-78
2023/06/08 09:45:44;;;;;;;3.85;1.50;;;;;;;32.53;25.40;98772.34;4936481;28;20047;-76
2023/06/08 09:48:11;;;;;;;2.65;1.65;;;;;;;32.33;25.70;98770.31;4936755;29;20509;-78
2023/06/08 09:50:36;;;;;;;5.78;1.77;;;;;;;32.09;26.04;98771.47;4938738;29;20570;-77
2023/06/08 09:53:02;;;;;;;4.90;1.75;;;;;;;32.00;26.44;98777.59;4940272;29;20110;-77
2023/06/08 09:55:28;;;;;;;3.97;1.70;;;;;;;31.41;26.98;98764.81;4939862;29;20079;-78
2023/06/08 09:57:53;;;;;;;5.82;1.77;;;;;;;31.28;27.16;98766.84;4939917;29;20031;-78
2023/06/08 10:00:20;;;;;;;7.38;1.75;;;;;;;31.26;27.24;98765.47;4939623;29;20057;-78
2023/06/08 10:03:09;;;;;;;4.28;1.77;;;;;;;31.21;27.30;98760.81;4955905;28;20038;-76
2023/06/08 10:05:36;;;;;;;5.25;1.85;;;;;;;31.23;27.53;98760.56;4939776;29;20490;-77
2023/06/08 10:08:02;;;;;;;6.63;2.00;;;;;;;31.18;27.45;98764.03;4940060;29;20043;-77
2023/06/08 10:10:35;;;;;;;6.13;1.80;;;;;;;31.07;28.03;98770.34;4955388;29;20105;-77
2023/06/08 10:13:01;;;;;;;4.72;1.83;;;;;;;30.99;28.13;98766.22;4939793;29;20040;-77
2023/06/08 10:15:27;;;;;;;5.78;1.85;;;;;;;30.90;28.05;98752.34;4955710;29;20082;-77
2023/06/08 10:17:53;;;;;;;3.67;1.63;;;;;;;30.87;28.08;98750.16;4923539;29;20043;-78
2023/06/08 10:20:19;;;;;;;3.55;1.92;;;;;;;30.77;28.48;98748.09;4939341;29;20031;-78
2023/06/08 10:22:44;;;;;;;8.88;1.90;;;;;;;30.70;28.88;98744.00;4955292;29;20113;-77
2023/06/08 10:25:13;;;;;;;4.70;2.00;;;;;;;30.68;28.70;98738.84;4923543;29;20027;-77
2023/06/08 10:27:38;;;;;;;4.40;1.80;;;;;;;30.72;29.29;98733.75;4924624;29;20043;-78
2023/06/08 10:30:05;;;;;;;4.05;1.83;;;;;;;30.64;29.26;98735.00;4955351;28;20110;-78
2023/06/08 10:32:36;;;;;;;11.00;1.95;;;;;;;30.54;29.54;98738.38;4939388;29;20027;-78
2023/06/08 10:35:04;;;;;;;8.35;1.80;;;;;;;30.48;29.56;98726.69;4923911;29;20031;-76
2023/06/08 10:37:30;;;;;;;4.65;2.15;;;;;;;30.45;29.67;98737.16;4939118;29;20090;-77
2023/06/08 10:40:00;;;;;;;6.40;2.15;;;;;;;30.38;29.51;98723.88;4939386;29;20031;-76
2023/06/08 10:42:26;;;;;;;6.75;2.00;;;;;;;30.31;29.60;98725.88;4923377;29;20043;-77
2023/06/08 10:44:57;;;;;;;4.70;1.73;;;;;;;30.08;30.10;98722.31;4956197;28;20102;-77
2023/06/08 10:47:23;;;;;;;3.45;1.75;;;;;;;30.06;30.50;98721.75;4939174;29;20048;-76
2023/06/08 10:50:02;;;;;;;3.47;1.88;;;;;;;29.99;30.22;98710.31;4939131;29;20102;-78
2023/06/08 10:52:27;;;;;;;5.97;1.88;;;;;;;29.95;30.47;98712.69;4939285;29;20063;-77
2023/06/08 10:54:57;;;;;;;4.55;2.10;;;;;;;29.80;30.61;98720.50;4955147;29;20070;-77
2023/06/08 10:57:50;;;;;;;5.05;1.80;;;;;;;29.74;31.01;98716.06;4939235;29;20483;-77
2023/06/08 11:00:31;;;;;;;6.30;1.90;;;;;;;29.66;30.72;98708.41;4953464;28;20039;-78
2023/06/08 11:02:58;;;;;;;9.38;1.90;;;;;;;29.50;31.02;98696.56;4955998;28;20028;-78
2023/06/08 11:05:23;;;;;;;7.28;2.03;;;;;;;29.36;31.39;98704.91;4939318;29;20031;-77
2023/06/08 11:07:50;;;;;;;6.25;1.70;;;;;;;29.16;31.76;98685.66;4938233;29;20475;-77
2023/06/08 11:10:15;;;;;;;4.30;1.98;;;;;;;29.07;31.73;98696.00;4922733;29;20040;-78
2023/06/08 11:12:41;;;;;;;5.32;2.20;;;;;;;28.96;31.71;98686.91;4954543;29;20046;-78
2023/06/08 11:15:07;;;;;;;5.10;1.80;;;;;;;28.80;31.83;98684.97;4922643;29;20031;-80
2023/06/08 11:17:34;;;;;;;7.45;2.35;;;;;;;28.60;31.96;98691.53;4922765;29;20098;-79
2023/06/08 11:20:06;;;;;;;5.07;2.10;;;;;;;28.56;31.80;98666.19;4939028;29;20380;-77
2023/06/08 11:22:32;;;;;;;2.70;1.70;;;;;;;28.64;31.89;98673.09;4938782;29;20035;-77
2023/06/08 11:24:57;;;;;;;7.63;2.25;;;;;;;28.60;31.99;98669.25;4954432;28;20050;-78
2023/06/08 11:27:23;;;;;;;4.57;1.90;;;;;;;28.51;32.07;98663.38;4938397;29;20513;-78
2023/06/08 11:29:48;;;;;;;3.47;1.80;;;;;;;28.57;31.87;98656.25;4954377;28;20042;-77